sensor_id;sensor_type;location;lat;lon;timestamp;pressure;altitude;pressure_sealevel;temperature;humidity
32330;BME280;18807;52.434;13.238;2022-12-07T00:05:16;100908.84;;;2.64;100.00
32330;BME280;18807;52.434;13.238;2022-12-07T00:12:52;100897.09;;;2.57;100.00
32330;BME280;18807;52.434;13.238;2022-12-07T00:20:26;100906.31;;;2.48;100.00
32330;BME280;18807;52.434;13.238;2022-12-07T00:28:01;100898.75;;;2.38;100.00
32330;BME280;18807;52.434;13.238;2022-12-07T00:35:35;100887.91;;;2.32;100.00
32330;BME280;18807;52.434;13.238;2022-12-07T00:43:10;100882.47;;;2.29;100.00
32330;BME280;18807;52.434;13.238;2022-12-07T00:50:44;100871.88;;;2.27;100.00
32330;BME280;18807;52.434;13.238;2022-12-07T00:58:19;100869.47;;;2.14;100.00
32330;BME280;18807;52.434;13.238;2022-12-07T01:05:54;100867.06;;;2.19;100.00
32330;BME280;18807;52.434;13.238;2022-12-07T01:13:31;100856.75;;;2.23;100.00
32330;BME280;18807;52.434;13.238;2022-12-07T01:21:06;100846.13;;;2.22;100.00
32330;BME280;18807;52.434;13.238;2022-12-07T01:28:42;100843.56;;;2.23;100.00
32330;BME280;18807;52.434;13.238;2022-12-07T01:36:19;100832.28;;;2.26;100.00
32330;BME280;18807;52.434;13.238;2022-12-07T01:44:15;100836.72;;;2.27;100.00
32330;BME280;18807;52.434;13.238;2022-12-07T01:51:52;100828.81;;;2.27;100.00
32330;BME280;18807;52.434;13.238;2022-12-07T01:59:30;100818.13;;;2.24;100.00
32330;BME280;18807;52.434;13.238;2022-12-07T02:07:04;100810.00;;;2.19;100.00
32330;BME280;18807;52.434;13.238;2022-12-07T02:14:40;100798.41;;;2.16;100.00
32330;BME280;18807;52.434;13.238;2022-12-07T02:22:26;100798.25;;;2.13;100.00
32330;BME280;18807;52.434;13.238;2022-12-07T02:30:09;100794.94;;;1.99;100.00
32330;BME280;18807;52.434;13.238;2022-12-07T02:37:53;100779.06;;;1.97;100.00
32330;BME280;18807;52.434;13.238;2022-12-07T02:45:34;100781.72;;;1.97;100.00
32330;BME280;18807;52.434;13.238;2022-12-07T02:53:30;100770.81;;;1.90;100.00
32330;BME280;18807;52.434;13.238;2022-12-07T03:01:15;100765.53;;;1.90;100.00
32330;BME280;18807;52.434;13.238;2022-12-07T03:09:04;100754.28;;;1.92;100.00
32330;BME280;18807;52.434;13.238;2022-12-07T03:16:47;100732.44;;;1.95;100.00
32330;BME280;18807;52.434;13.238;2022-12-07T03:24:27;100726.25;;;1.94;100.00
32330;BME280;18807;52.434;13.238;2022-12-07T03:32:06;100713.09;;;1.94;100.00
32330;BME280;18807;52.434;13.238;2022-12-07T03:39:45;100690.16;;;1.92;100.00
32330;BME280;18807;52.434;13.238;2022-12-07T03:47:27;100684.81;;;1.90;100.00
32330;BME280;18807;52.434;13.238;2022-12-07T03:55:06;100672.56;;;1.91;100.00
32330;BME280;18807;52.434;13.238;2022-12-07T04:02:45;100674.44;;;1.93;100.00
32330;BME280;18807;52.434;13.238;2022-12-07T04:10:20;100662.91;;;1.91;100.00
32330;BME280;18807;52.434;13.238;2022-12-07T04:17:55;100653.00;;;1.86;100.00
32330;BME280;18807;52.434;13.238;2022-12-07T04:25:29;100639.78;;;1.84;100.00
32330;BME280;18807;52.434;13.238;2022-12-07T04:33:04;100621.28;;;1.83;100.00
32330;BME280;18807;52.434;13.238;2022-12-07T04:40:38;100618.72;;;1.84;100.00
32330;BME280;18807;52.434;13.238;2022-12-07T04:48:13;100623.34;;;1.90;100.00
32330;BME280;18807;52.434;13.238;2022-12-07T04:55:47;100612.97;;;1.93;100.00
32330;BME280;18807;52.434;13.238;2022-12-07T05:03:22;100601.69;;;1.95;100.00
32330;BME280;18807;52.434;13.238;2022-12-07T05:10:56;100603.69;;;2.01;100.00
32330;BME280;18807;52.434;13.238;2022-12-07T05:18:32;100600.56;;;2.09;100.00
32330;BME280;18807;52.434;13.238;2022-12-07T05:26:06;100589.28;;;2.12;100.00
32330;BME280;18807;52.434;13.238;2022-12-07T05:33:41;100580.91;;;2.21;100.00
32330;BME280;18807;52.434;13.238;2022-12-07T05:41:16;100583.03;;;2.29;100.00
32330;BME280;18807;52.434;13.238;2022-12-07T05:49:09;100574.56;;;2.36;100.00
32330;BME280;18807;52.434;13.238;2022-12-07T05:56:43;100554.66;;;2.43;100.00
32330;BME280;18807;52.434;13.238;2022-12-07T06:04:19;100547.88;;;2.48;100.00
32330;BME280;18807;52.434;13.238;2022-12-07T06:11:54;100547.28;;;2.55;100.00
32330;BME280;18807;52.434;13.238;2022-12-07T06:19:46;100541.28;;;2.59;100.00
32330;BME280;18807;52.434;13.238;2022-12-07T06:27:23;100546.84;;;2.65;100.00
32330;BME280;18807;52.434;13.238;2022-12-07T06:34:59;100539.19;;;2.71;100.00
32330;BME280;18807;52.434;13.238;2022-12-07T06:42:33;100532.56;;;2.80;100.00
32330;BME280;18807;52.434;13.238;2022-12-07T06:50:09;100536.41;;;2.88;100.00
32330;BME280;18807;52.434;13.238;2022-12-07T06:57:43;100534.22;;;2.99;100.00
32330;BME280;18807;52.434;13.238;2022-12-07T07:05:18;100528.41;;;3.07;100.00
32330;BME280;18807;52.434;13.238;2022-12-07T07:12:54;100530.34;;;3.11;100.00
32330;BME280;18807;52.434;13.238;2022-12-07T07:20:30;100531.41;;;3.16;100.00
32330;BME280;18807;52.434;13.238;2022-12-07T07:28:04;100540.72;;;3.29;100.00
32330;BME280;18807;52.434;13.238;2022-12-07T07:35:40;100544.09;;;3.25;100.00
32330;BME280;18807;52.434;13.238;2022-12-07T07:43:13;100540.66;;;3.27;100.00
32330;BME280;18807;52.434;13.238;2022-12-07T07:50:49;100530.84;;;3.23;100.00
32330;BME280;18807;52.434;13.238;2022-12-07T07:58:23;100537.78;;;3.21;100.00
32330;BME280;18807;52.434;13.238;2022-12-07T08:05:58;100546.75;;;3.25;100.00
32330;BME280;18807;52.434;13.238;2022-12-07T08:13:32;100543.44;;;3.30;100.00
32330;BME280;18807;52.434;13.238;2022-12-07T08:21:12;100557.63;;;3.34;100.00
32330;BME280;18807;52.434;13.238;2022-12-07T08:28:48;100563.88;;;3.36;100.00
32330;BME280;18807;52.434;13.238;2022-12-07T08:36:24;100552.53;;;3.38;100.00
32330;BME280;18807;52.434;13.238;2022-12-07T08:43:58;100562.41;;;3.42;100.00
32330;BME280;18807;52.434;13.238;2022-12-07T08:51:33;100570.13;;;3.38;100.00
32330;BME280;18807;52.434;13.238;2022-12-07T08:59:07;100569.28;;;3.39;100.00
32330;BME280;18807;52.434;13.238;2022-12-07T09:06:44;100587.69;;;3.37;100.00
32330;BME280;18807;52.434;13.238;2022-12-07T09:14:18;100594.69;;;3.37;100.00
32330;BME280;18807;52.434;13.238;2022-12-07T09:21:53;100597.16;;;3.32;100.00
32330;BME280;18807;52.434;13.238;2022-12-07T09:29:28;100598.25;;;3.37;100.00
32330;BME280;18807;52.434;13.238;2022-12-07T09:37:04;100610.47;;;3.35;100.00
32330;BME280;18807;52.434;13.238;2022-12-07T09:44:40;100614.03;;;3.36;100.00
32330;BME280;18807;52.434;13.238;2022-12-07T09:52:21;100622.53;;;3.29;100.00
32330;BME280;18807;52.434;13.238;2022-12-07T10:00:03;100618.72;;;3.22;100.00
32330;BME280;18807;52.434;13.238;2022-12-07T10:07:39;100631.88;;;3.21;100.00
32330;BME280;18807;52.434;13.238;2022-12-07T10:15:13;100621.44;;;3.24;100.00
32330;BME280;18807;52.434;13.238;2022-12-07T10:22:57;100616.22;;;3.25;100.00
32330;BME280;18807;52.434;13.238;2022-12-07T10:30:32;100616.41;;;3.30;100.00
32330;BME280;18807;52.434;13.238;2022-12-07T10:38:16;100603.53;;;3.37;100.00
32330;BME280;18807;52.434;13.238;2022-12-07T10:46:14;100608.28;;;3.46;100.00
32330;BME280;18807;52.434;13.238;2022-12-07T10:54:02;100611.94;;;3.49;100.00
32330;BME280;18807;52.434;13.238;2022-12-07T11:01:45;100600.66;;;3.53;100.00
32330;BME280;18807;52.434;13.238;2022-12-07T11:09:39;100601.63;;;3.55;100.00
32330;BME280;18807;52.434;13.238;2022-12-07T11:17:45;100600.91;;;3.59;100.00
32330;BME280;18807;52.434;13.238;2022-12-07T11:25:30;100598.38;;;3.62;100.00
32330;BME280;18807;52.434;13.238;2022-12-07T11:33:15;100588.81;;;3.64;100.00
32330;BME280;18807;52.434;13.238;2022-12-07T11:40:58;100587.16;;;3.68;100.00
32330;BME280;18807;52.434;13.238;2022-12-07T11:48:47;100575.97;;;3.73;100.00
32330;BME280;18807;52.434;13.238;2022-12-07T11:56:27;100580.63;;;3.80;100.00
32330;BME280;18807;52.434;13.238;2022-12-07T12:04:07;100567.66;;;3.86;100.00
32330;BME280;18807;52.434;13.238;2022-12-07T12:11:56;100557.25;;;3.91;100.00
32330;BME280;18807;52.434;13.238;2022-12-07T12:20:01;100557.38;;;3.94;100.00
32330;BME280;18807;52.434;13.238;2022-12-07T12:27:39;100553.13;;;3.97;100.00
32330;BME280;18807;52.434;13.238;2022-12-07T12:35:26;100549.84;;;4.04;100.00
32330;BME280;18807;52.434;13.238;2022-12-07T12:43:42;100549.22;;;4.11;100.00
32330;BME280;18807;52.434;13.238;2022-12-07T12:51:36;100545.19;;;4.21;100.00
32330;BME280;18807;52.434;13.238;2022-12-07T12:59:26;100548.88;;;4.26;100.00
32330;BME280;18807;52.434;13.238;2022-12-07T13:07:02;100542.09;;;4.33;100.00
32330;BME280;18807;52.434;13.238;2022-12-07T13:14:56;100534.31;;;4.37;100.00
32330;BME280;18807;52.434;13.238;2022-12-07T13:22:43;100531.63;;;4.36;100.00
32330;BME280;18807;52.434;13.238;2022-12-07T13:30:21;100528.06;;;4.35;100.00
32330;BME280;18807;52.434;13.238;2022-12-07T13:37:55;100531.56;;;4.34;100.00
32330;BME280;18807;52.434;13.238;2022-12-07T13:45:32;100524.38;;;4.30;100.00
32330;BME280;18807;52.434;13.238;2022-12-07T13:53:23;100532.19;;;4.27;100.00
32330;BME280;18807;52.434;13.238;2022-12-07T14:01:02;100544.56;;;4.28;100.00
32330;BME280;18807;52.434;13.238;2022-12-07T14:08:36;100540.06;;;4.26;100.00
32330;BME280;18807;52.434;13.238;2022-12-07T14:16:23;100543.47;;;4.23;100.00
32330;BME280;18807;52.434;13.238;2022-12-07T14:24:14;100531.13;;;4.22;100.00
32330;BME280;18807;52.434;13.238;2022-12-07T14:31:52;100541.59;;;4.19;100.00
32330;BME280;18807;52.434;13.238;2022-12-07T14:39:28;100530.78;;;4.13;100.00
32330;BME280;18807;52.434;13.238;2022-12-07T14:47:07;100535.72;;;4.04;100.00
32330;BME280;18807;52.434;13.238;2022-12-07T14:55:02;100541.59;;;3.95;100.00
32330;BME280;18807;52.434;13.238;2022-12-07T15:02:37;100531.75;;;3.91;100.00
32330;BME280;18807;52.434;13.238;2022-12-07T15:10:15;100531.59;;;3.87;100.00
32330;BME280;18807;52.434;13.238;2022-12-07T15:17:57;100534.94;;;3.83;100.00
32330;BME280;18807;52.434;13.238;2022-12-07T15:25:31;100528.25;;;3.69;100.00
32330;BME280;18807;52.434;13.238;2022-12-07T15:33:06;100529.06;;;3.68;100.00
32330;BME280;18807;52.434;13.238;2022-12-07T15:40:40;100534.31;;;3.66;100.00
32330;BME280;18807;52.434;13.238;2022-12-07T15:48:16;100526.09;;;3.59;100.00
32330;BME280;18807;52.434;13.238;2022-12-07T15:55:59;100536.31;;;3.50;100.00
32330;BME280;18807;52.434;13.238;2022-12-07T16:03:35;100530.59;;;3.39;100.00
32330;BME280;18807;52.434;13.238;2022-12-07T16:11:09;100532.09;;;3.33;100.00
32330;BME280;18807;52.434;13.238;2022-12-07T16:18:46;100539.81;;;3.28;100.00
32330;BME280;18807;52.434;13.238;2022-12-07T16:26:21;100539.50;;;3.21;100.00
32330;BME280;18807;52.434;13.238;2022-12-07T16:33:58;100538.56;;;3.19;100.00
32330;BME280;18807;52.434;13.238;2022-12-07T16:41:33;100540.00;;;3.11;100.00
32330;BME280;18807;52.434;13.238;2022-12-07T16:49:11;100540.84;;;3.10;100.00
32330;BME280;18807;52.434;13.238;2022-12-07T16:56:47;100538.75;;;3.03;100.00
32330;BME280;18807;52.434;13.238;2022-12-07T17:04:24;100543.72;;;2.95;100.00
32330;BME280;18807;52.434;13.238;2022-12-07T17:11:58;100541.81;;;2.91;100.00
32330;BME280;18807;52.434;13.238;2022-12-07T17:19:36;100548.72;;;2.88;100.00
32330;BME280;18807;52.434;13.238;2022-12-07T17:27:10;100561.84;;;2.86;100.00
32330;BME280;18807;52.434;13.238;2022-12-07T17:34:45;100558.28;;;2.86;100.00
32330;BME280;18807;52.434;13.238;2022-12-07T17:42:19;100555.31;;;2.78;100.00
32330;BME280;18807;52.434;13.238;2022-12-07T17:50:13;100555.06;;;2.72;100.00
32330;BME280;18807;52.434;13.238;2022-12-07T17:57:47;100548.75;;;2.69;100.00
32330;BME280;18807;52.434;13.238;2022-12-07T18:05:22;100546.50;;;2.57;100.00
32330;BME280;18807;52.434;13.238;2022-12-07T18:12:56;100549.84;;;2.53;100.00
32330;BME280;18807;52.434;13.238;2022-12-07T18:20:45;100555.00;;;2.50;100.00
32330;BME280;18807;52.434;13.238;2022-12-07T18:28:19;100551.19;;;2.44;100.00
32330;BME280;18807;52.434;13.238;2022-12-07T18:35:55;100560.78;;;2.42;100.00
32330;BME280;18807;52.434;13.238;2022-12-07T18:43:31;100566.50;;;2.33;100.00
32330;BME280;18807;52.434;13.238;2022-12-07T18:51:12;100569.22;;;2.35;100.00
32330;BME280;18807;52.434;13.238;2022-12-07T18:58:48;100561.31;;;2.35;100.00
32330;BME280;18807;52.434;13.238;2022-12-07T19:06:42;100561.94;;;2.29;100.00
32330;BME280;18807;52.434;13.238;2022-12-07T19:14:18;100559.25;;;2.28;100.00
32330;BME280;18807;52.434;13.238;2022-12-07T19:21:54;100564.31;;;2.23;100.00
32330;BME280;18807;52.434;13.238;2022-12-07T19:29:29;100573.84;;;2.20;100.00
32330;BME280;18807;52.434;13.238;2022-12-07T19:37:05;100571.25;;;2.21;100.00
32330;BME280;18807;52.434;13.238;2022-12-07T19:44:40;100571.25;;;2.21;100.00
32330;BME280;18807;52.434;13.238;2022-12-07T19:52:15;100577.34;;;2.20;100.00
32330;BME280;18807;52.434;13.238;2022-12-07T19:59:49;100570.16;;;2.16;100.00
32330;BME280;18807;52.434;13.238;2022-12-07T20:07:24;100576.34;;;2.17;100.00
32330;BME280;18807;52.434;13.238;2022-12-07T20:14:58;100570.78;;;2.11;100.00
32330;BME280;18807;52.434;13.238;2022-12-07T20:22:35;100562.41;;;2.00;100.00
32330;BME280;18807;52.434;13.238;2022-12-07T20:30:09;100559.69;;;1.98;100.00
32330;BME280;18807;52.434;13.238;2022-12-07T20:37:44;100558.56;;;1.93;100.00
32330;BME280;18807;52.434;13.238;2022-12-07T20:45:19;100555.53;;;1.84;100.00
32330;BME280;18807;52.434;13.238;2022-12-07T20:52:54;100552.81;;;1.83;100.00
32330;BME280;18807;52.434;13.238;2022-12-07T21:00:33;100564.06;;;1.79;100.00
32330;BME280;18807;52.434;13.238;2022-12-07T21:08:09;100570.75;;;1.72;100.00
32330;BME280;18807;52.434;13.238;2022-12-07T21:15:43;100573.25;;;1.69;100.00
32330;BME280;18807;52.434;13.238;2022-12-07T21:23:18;100572.00;;;1.61;100.00
32330;BME280;18807;52.434;13.238;2022-12-07T21:30:55;100575.44;;;1.60;100.00
32330;BME280;18807;52.434;13.238;2022-12-07T21:38:46;100578.84;;;1.58;100.00
32330;BME280;18807;52.434;13.238;2022-12-07T21:46:22;100566.53;;;1.57;100.00
32330;BME280;18807;52.434;13.238;2022-12-07T21:54:06;100578.31;;;1.47;100.00
32330;BME280;18807;52.434;13.238;2022-12-07T22:01:41;100584.34;;;1.45;100.00
32330;BME280;18807;52.434;13.238;2022-12-07T22:09:20;100570.84;;;1.37;100.00
32330;BME280;18807;52.434;13.238;2022-12-07T22:16:55;100577.28;;;1.26;100.00
32330;BME280;18807;52.434;13.238;2022-12-07T22:24:31;100572.13;;;1.10;100.00
32330;BME280;18807;52.434;13.238;2022-12-07T22:32:06;100584.25;;;1.07;100.00
32330;BME280;18807;52.434;13.238;2022-12-07T22:40:01;100582.56;;;1.09;100.00
32330;BME280;18807;52.434;13.238;2022-12-07T22:47:38;100567.41;;;1.03;100.00
32330;BME280;18807;52.434;13.238;2022-12-07T22:55:13;100560.19;;;0.99;100.00
32330;BME280;18807;52.434;13.238;2022-12-07T23:02:47;100566.88;;;0.93;100.00
32330;BME280;18807;52.434;13.238;2022-12-07T23:10:22;100574.59;;;0.90;100.00
32330;BME280;18807;52.434;13.238;2022-12-07T23:17:56;100576.31;;;0.89;100.00
32330;BME280;18807;52.434;13.238;2022-12-07T23:25:32;100564.16;;;0.91;100.00
32330;BME280;18807;52.434;13.238;2022-12-07T23:33:06;100548.03;;;0.84;100.00
32330;BME280;18807;52.434;13.238;2022-12-07T23:40:41;100555.97;;;0.85;100.00
32330;BME280;18807;52.434;13.238;2022-12-07T23:48:15;100539.53;;;0.89;100.00
32330;BME280;18807;52.434;13.238;2022-12-07T23:55:51;100531.06;;;0.95;100.00
